sensor_id;sensor_type;location;lat;lon;timestamp;P1;durP1;ratioP1;P2;durP2;ratioP2
26696;SDS011;14312;52.614;13.496;2024-03-08T00:01:32;9.20;;;6.73;;
26696;SDS011;14312;52.614;13.496;2024-03-08T00:04:18;12.33;;;7.40;;
26696;SDS011;14312;52.614;13.496;2024-03-08T00:07:04;8.73;;;6.57;;
26696;SDS011;14312;52.614;13.496;2024-03-08T00:09:50;8.70;;;6.67;;
26696;SDS011;14312;52.614;13.496;2024-03-08T00:12:36;8.70;;;6.97;;
26696;SDS011;14312;52.614;13.496;2024-03-08T00:15:22;9.30;;;6.57;;
26696;SDS011;14312;52.614;13.496;2024-03-08T00:18:08;9.07;;;6.77;;
26696;SDS011;14312;52.614;13.496;2024-03-08T00:20:56;8.30;;;6.53;;
26696;SDS011;14312;52.614;13.496;2024-03-08T00:23:42;9.63;;;6.90;;
26696;SDS011;14312;52.614;13.496;2024-03-08T00:26:28;9.65;;;7.47;;
26696;SDS011;14312;52.614;13.496;2024-03-08T00:29:15;9.45;;;6.93;;
26696;SDS011;14312;52.614;13.496;2024-03-08T00:32:01;8.63;;;6.80;;
26696;SDS011;14312;52.614;13.496;2024-03-08T00:34:47;10.13;;;7.17;;
26696;SDS011;14312;52.614;13.496;2024-03-08T00:37:33;8.63;;;6.57;;
26696;SDS011;14312;52.614;13.496;2024-03-08T00:40:20;9.90;;;7.17;;
26696;SDS011;14312;52.614;13.496;2024-03-08T00:43:06;8.70;;;6.73;;
26696;SDS011;14312;52.614;13.496;2024-03-08T00:45:52;8.55;;;6.28;;
26696;SDS011;14312;52.614;13.496;2024-03-08T00:48:38;10.13;;;7.20;;
26696;SDS011;14312;52.614;13.496;2024-03-08T00:51:24;10.40;;;7.40;;
26696;SDS011;14312;52.614;13.496;2024-03-08T00:54:10;11.43;;;7.53;;
26696;SDS011;14312;52.614;13.496;2024-03-08T00:56:55;8.47;;;6.73;;
26696;SDS011;14312;52.614;13.496;2024-03-08T00:59:41;10.03;;;7.00;;
26696;SDS011;14312;52.614;13.496;2024-03-08T01:02:27;10.80;;;6.80;;
26696;SDS011;14312;52.614;13.496;2024-03-08T01:05:14;8.17;;;6.00;;
26696;SDS011;14312;52.614;13.496;2024-03-08T01:08:00;9.93;;;6.35;;
26696;SDS011;14312;52.614;13.496;2024-03-08T01:10:49;8.35;;;6.20;;
26696;SDS011;14312;52.614;13.496;2024-03-08T01:13:36;8.80;;;6.93;;
26696;SDS011;14312;52.614;13.496;2024-03-08T01:16:22;9.17;;;6.93;;
26696;SDS011;14312;52.614;13.496;2024-03-08T01:19:08;8.63;;;6.57;;
26696;SDS011;14312;52.614;13.496;2024-03-08T01:21:54;8.60;;;6.30;;
26696;SDS011;14312;52.614;13.496;2024-03-08T01:24:43;8.80;;;6.50;;
26696;SDS011;14312;52.614;13.496;2024-03-08T01:27:29;8.60;;;6.78;;
26696;SDS011;14312;52.614;13.496;2024-03-08T01:30:15;10.47;;;6.97;;
26696;SDS011;14312;52.614;13.496;2024-03-08T01:33:02;9.18;;;6.80;;
26696;SDS011;14312;52.614;13.496;2024-03-08T01:35:51;9.43;;;6.90;;
26696;SDS011;14312;52.614;13.496;2024-03-08T01:38:38;9.87;;;7.00;;
26696;SDS011;14312;52.614;13.496;2024-03-08T01:41:24;10.07;;;7.32;;
26696;SDS011;14312;52.614;13.496;2024-03-08T01:44:10;9.63;;;7.10;;
26696;SDS011;14312;52.614;13.496;2024-03-08T01:46:56;9.37;;;7.03;;
26696;SDS011;14312;52.614;13.496;2024-03-08T01:49:42;9.27;;;6.90;;
26696;SDS011;14312;52.614;13.496;2024-03-08T01:52:29;9.75;;;6.82;;
26696;SDS011;14312;52.614;13.496;2024-03-08T01:55:17;11.63;;;7.13;;
26696;SDS011;14312;52.614;13.496;2024-03-08T01:58:06;11.57;;;7.40;;
26696;SDS011;14312;52.614;13.496;2024-03-08T02:00:56;9.97;;;6.97;;
26696;SDS011;14312;52.614;13.496;2024-03-08T02:03:43;9.03;;;6.47;;
26696;SDS011;14312;52.614;13.496;2024-03-08T02:06:30;8.40;;;6.77;;
26696;SDS011;14312;52.614;13.496;2024-03-08T02:09:16;9.37;;;6.80;;
26696;SDS011;14312;52.614;13.496;2024-03-08T02:12:03;8.73;;;6.53;;
26696;SDS011;14312;52.614;13.496;2024-03-08T02:14:49;10.27;;;6.47;;
26696;SDS011;14312;52.614;13.496;2024-03-08T02:17:35;8.83;;;7.00;;
26696;SDS011;14312;52.614;13.496;2024-03-08T02:20:21;11.93;;;7.23;;
26696;SDS011;14312;52.614;13.496;2024-03-08T02:23:07;10.63;;;6.90;;
26696;SDS011;14312;52.614;13.496;2024-03-08T02:25:53;10.20;;;6.70;;
26696;SDS011;14312;52.614;13.496;2024-03-08T02:28:40;10.00;;;7.57;;
26696;SDS011;14312;52.614;13.496;2024-03-08T02:31:28;9.13;;;6.43;;
26696;SDS011;14312;52.614;13.496;2024-03-08T02:34:14;8.97;;;6.90;;
26696;SDS011;14312;52.614;13.496;2024-03-08T02:37:00;10.88;;;7.20;;
26696;SDS011;14312;52.614;13.496;2024-03-08T02:39:46;10.20;;;6.95;;
26696;SDS011;14312;52.614;13.496;2024-03-08T02:42:32;9.97;;;6.63;;
26696;SDS011;14312;52.614;13.496;2024-03-08T02:45:18;9.23;;;7.07;;
26696;SDS011;14312;52.614;13.496;2024-03-08T02:48:04;10.68;;;7.20;;
26696;SDS011;14312;52.614;13.496;2024-03-08T02:50:54;10.40;;;7.27;;
26696;SDS011;14312;52.614;13.496;2024-03-08T02:53:40;10.37;;;7.50;;
26696;SDS011;14312;52.614;13.496;2024-03-08T02:56:25;10.83;;;7.60;;
26696;SDS011;14312;52.614;13.496;2024-03-08T02:59:14;11.67;;;7.27;;
26696;SDS011;14312;52.614;13.496;2024-03-08T03:02:03;10.13;;;7.10;;
26696;SDS011;14312;52.614;13.496;2024-03-08T03:04:48;10.97;;;7.47;;
26696;SDS011;14312;52.614;13.496;2024-03-08T03:07:35;10.07;;;7.03;;
26696;SDS011;14312;52.614;13.496;2024-03-08T03:10:21;10.43;;;7.27;;
26696;SDS011;14312;52.614;13.496;2024-03-08T03:13:07;9.47;;;7.17;;
26696;SDS011;14312;52.614;13.496;2024-03-08T03:15:54;9.83;;;7.07;;
26696;SDS011;14312;52.614;13.496;2024-03-08T03:18:40;9.93;;;6.93;;
26696;SDS011;14312;52.614;13.496;2024-03-08T03:21:27;9.93;;;6.87;;
26696;SDS011;14312;52.614;13.496;2024-03-08T03:24:15;10.27;;;7.30;;
26696;SDS011;14312;52.614;13.496;2024-03-08T03:27:02;10.13;;;6.70;;
26696;SDS011;14312;52.614;13.496;2024-03-08T03:29:56;10.47;;;7.33;;
26696;SDS011;14312;52.614;13.496;2024-03-08T03:32:43;9.93;;;7.60;;
26696;SDS011;14312;52.614;13.496;2024-03-08T03:35:32;9.93;;;6.93;;
26696;SDS011;14312;52.614;13.496;2024-03-08T03:38:19;10.03;;;6.93;;
26696;SDS011;14312;52.614;13.496;2024-03-08T03:41:06;9.13;;;7.27;;
26696;SDS011;14312;52.614;13.496;2024-03-08T03:43:55;10.60;;;7.13;;
26696;SDS011;14312;52.614;13.496;2024-03-08T03:46:42;9.60;;;6.60;;
26696;SDS011;14312;52.614;13.496;2024-03-08T03:49:31;10.27;;;7.40;;
26696;SDS011;14312;52.614;13.496;2024-03-08T03:52:17;11.80;;;7.03;;
26696;SDS011;14312;52.614;13.496;2024-03-08T03:55:03;11.50;;;7.47;;
26696;SDS011;14312;52.614;13.496;2024-03-08T03:57:50;9.23;;;7.47;;
26696;SDS011;14312;52.614;13.496;2024-03-08T04:00:36;10.20;;;7.23;;
26696;SDS011;14312;52.614;13.496;2024-03-08T04:03:22;10.33;;;7.13;;
26696;SDS011;14312;52.614;13.496;2024-03-08T04:06:08;11.87;;;7.93;;
26696;SDS011;14312;52.614;13.496;2024-03-08T04:08:54;10.87;;;7.20;;
26696;SDS011;14312;52.614;13.496;2024-03-08T04:11:40;11.23;;;7.47;;
26696;SDS011;14312;52.614;13.496;2024-03-08T04:14:26;12.90;;;8.10;;
26696;SDS011;14312;52.614;13.496;2024-03-08T04:17:12;9.57;;;7.00;;
26696;SDS011;14312;52.614;13.496;2024-03-08T04:19:59;8.57;;;6.60;;
26696;SDS011;14312;52.614;13.496;2024-03-08T04:22:45;11.83;;;7.47;;
26696;SDS011;14312;52.614;13.496;2024-03-08T04:25:33;10.33;;;6.93;;
26696;SDS011;14312;52.614;13.496;2024-03-08T04:28:20;10.90;;;6.70;;
26696;SDS011;14312;52.614;13.496;2024-03-08T04:31:06;10.87;;;7.53;;
26696;SDS011;14312;52.614;13.496;2024-03-08T04:33:52;10.97;;;7.60;;
26696;SDS011;14312;52.614;13.496;2024-03-08T04:36:38;9.90;;;7.10;;
26696;SDS011;14312;52.614;13.496;2024-03-08T04:39:24;10.70;;;7.50;;
26696;SDS011;14312;52.614;13.496;2024-03-08T04:42:13;10.13;;;7.63;;
26696;SDS011;14312;52.614;13.496;2024-03-08T04:45:00;11.53;;;7.23;;
26696;SDS011;14312;52.614;13.496;2024-03-08T04:47:47;9.23;;;6.47;;
26696;SDS011;14312;52.614;13.496;2024-03-08T04:50:33;10.23;;;6.90;;
26696;SDS011;14312;52.614;13.496;2024-03-08T04:53:19;10.97;;;6.87;;
26696;SDS011;14312;52.614;13.496;2024-03-08T04:56:05;10.37;;;7.17;;
26696;SDS011;14312;52.614;13.496;2024-03-08T04:58:52;11.67;;;8.30;;
26696;SDS011;14312;52.614;13.496;2024-03-08T05:01:39;9.40;;;6.77;;
26696;SDS011;14312;52.614;13.496;2024-03-08T05:04:25;9.70;;;7.30;;
26696;SDS011;14312;52.614;13.496;2024-03-08T05:07:10;12.00;;;8.10;;
26696;SDS011;14312;52.614;13.496;2024-03-08T05:09:56;11.00;;;6.87;;
26696;SDS011;14312;52.614;13.496;2024-03-08T05:12:43;13.03;;;8.23;;
26696;SDS011;14312;52.614;13.496;2024-03-08T05:15:29;8.83;;;7.07;;
26696;SDS011;14312;52.614;13.496;2024-03-08T05:18:15;11.53;;;7.33;;
26696;SDS011;14312;52.614;13.496;2024-03-08T05:21:01;11.33;;;6.93;;
26696;SDS011;14312;52.614;13.496;2024-03-08T05:23:50;8.80;;;6.30;;
26696;SDS011;14312;52.614;13.496;2024-03-08T05:26:36;8.90;;;6.83;;
26696;SDS011;14312;52.614;13.496;2024-03-08T05:29:25;11.33;;;7.63;;
26696;SDS011;14312;52.614;13.496;2024-03-08T05:32:11;9.70;;;6.03;;
26696;SDS011;14312;52.614;13.496;2024-03-08T05:34:57;13.40;;;7.93;;
26696;SDS011;14312;52.614;13.496;2024-03-08T05:37:43;11.47;;;6.80;;
26696;SDS011;14312;52.614;13.496;2024-03-08T05:40:29;11.00;;;7.30;;
26696;SDS011;14312;52.614;13.496;2024-03-08T05:43:18;9.57;;;6.87;;
26696;SDS011;14312;52.614;13.496;2024-03-08T05:46:05;11.27;;;7.57;;
26696;SDS011;14312;52.614;13.496;2024-03-08T05:48:51;9.93;;;7.13;;
26696;SDS011;14312;52.614;13.496;2024-03-08T05:51:37;10.93;;;7.13;;
26696;SDS011;14312;52.614;13.496;2024-03-08T05:54:24;11.20;;;7.30;;
26696;SDS011;14312;52.614;13.496;2024-03-08T05:57:11;12.00;;;7.40;;
26696;SDS011;14312;52.614;13.496;2024-03-08T05:59:57;10.90;;;7.40;;
26696;SDS011;14312;52.614;13.496;2024-03-08T06:02:43;10.37;;;7.33;;
26696;SDS011;14312;52.614;13.496;2024-03-08T06:05:29;13.50;;;8.00;;
26696;SDS011;14312;52.614;13.496;2024-03-08T06:08:15;10.60;;;7.50;;
26696;SDS011;14312;52.614;13.496;2024-03-08T06:11:01;11.27;;;7.30;;
26696;SDS011;14312;52.614;13.496;2024-03-08T06:13:48;9.70;;;7.23;;
26696;SDS011;14312;52.614;13.496;2024-03-08T06:16:35;9.87;;;7.17;;
26696;SDS011;14312;52.614;13.496;2024-03-08T06:19:21;10.17;;;7.70;;
26696;SDS011;14312;52.614;13.496;2024-03-08T06:22:07;11.63;;;7.67;;
26696;SDS011;14312;52.614;13.496;2024-03-08T06:24:55;11.03;;;7.87;;
26696;SDS011;14312;52.614;13.496;2024-03-08T06:27:41;12.97;;;8.30;;
26696;SDS011;14312;52.614;13.496;2024-03-08T06:30:32;11.77;;;7.80;;
26696;SDS011;14312;52.614;13.496;2024-03-08T06:33:18;12.63;;;7.87;;
26696;SDS011;14312;52.614;13.496;2024-03-08T06:36:04;11.20;;;7.50;;
26696;SDS011;14312;52.614;13.496;2024-03-08T06:38:50;11.50;;;8.37;;
26696;SDS011;14312;52.614;13.496;2024-03-08T06:41:36;12.30;;;8.17;;
26696;SDS011;14312;52.614;13.496;2024-03-08T06:44:23;12.80;;;8.30;;
26696;SDS011;14312;52.614;13.496;2024-03-08T06:47:09;11.33;;;8.00;;
26696;SDS011;14312;52.614;13.496;2024-03-08T06:49:55;13.10;;;8.97;;
26696;SDS011;14312;52.614;13.496;2024-03-08T06:52:41;14.23;;;8.83;;
26696;SDS011;14312;52.614;13.496;2024-03-08T06:55:32;11.10;;;8.50;;
26696;SDS011;14312;52.614;13.496;2024-03-08T06:58:18;14.47;;;8.00;;
26696;SDS011;14312;52.614;13.496;2024-03-08T07:01:04;12.77;;;8.27;;
26696;SDS011;14312;52.614;13.496;2024-03-08T07:03:53;11.23;;;8.23;;
26696;SDS011;14312;52.614;13.496;2024-03-08T07:06:39;11.03;;;8.07;;
26696;SDS011;14312;52.614;13.496;2024-03-08T07:09:26;11.70;;;9.07;;
26696;SDS011;14312;52.614;13.496;2024-03-08T07:12:12;11.50;;;8.17;;
26696;SDS011;14312;52.614;13.496;2024-03-08T07:14:59;11.73;;;8.70;;
26696;SDS011;14312;52.614;13.496;2024-03-08T07:17:45;11.13;;;8.03;;
26696;SDS011;14312;52.614;13.496;2024-03-08T07:20:32;11.50;;;8.80;;
26696;SDS011;14312;52.614;13.496;2024-03-08T07:23:18;12.30;;;8.48;;
26696;SDS011;14312;52.614;13.496;2024-03-08T07:26:23;12.65;;;9.27;;
26696;SDS011;14312;52.614;13.496;2024-03-08T07:29:09;13.17;;;9.43;;
26696;SDS011;14312;52.614;13.496;2024-03-08T07:31:55;15.17;;;9.93;;
26696;SDS011;14312;52.614;13.496;2024-03-08T07:34:59;13.03;;;9.37;;
26696;SDS011;14312;52.614;13.496;2024-03-08T07:37:47;13.60;;;9.55;;
26696;SDS011;14312;52.614;13.496;2024-03-08T07:40:35;15.07;;;10.03;;
26696;SDS011;14312;52.614;13.496;2024-03-08T07:43:26;16.07;;;10.27;;
26696;SDS011;14312;52.614;13.496;2024-03-08T07:46:12;13.90;;;10.07;;
26696;SDS011;14312;52.614;13.496;2024-03-08T07:48:58;16.17;;;11.20;;
26696;SDS011;14312;52.614;13.496;2024-03-08T07:51:45;13.90;;;10.50;;
26696;SDS011;14312;52.614;13.496;2024-03-08T07:54:31;15.07;;;10.57;;
26696;SDS011;14312;52.614;13.496;2024-03-08T07:57:16;15.90;;;10.87;;
26696;SDS011;14312;52.614;13.496;2024-03-08T08:00:04;16.42;;;11.25;;
26696;SDS011;14312;52.614;13.496;2024-03-08T08:02:54;16.77;;;11.97;;
26696;SDS011;14312;52.614;13.496;2024-03-08T08:05:40;16.30;;;10.87;;
26696;SDS011;14312;52.614;13.496;2024-03-08T08:08:25;18.13;;;12.85;;
26696;SDS011;14312;52.614;13.496;2024-03-08T08:11:12;15.85;;;11.48;;
26696;SDS011;14312;52.614;13.496;2024-03-08T08:13:58;15.40;;;11.57;;
26696;SDS011;14312;52.614;13.496;2024-03-08T08:16:45;16.35;;;11.98;;
26696;SDS011;14312;52.614;13.496;2024-03-08T08:19:31;16.52;;;11.48;;
26696;SDS011;14312;52.614;13.496;2024-03-08T08:22:17;16.42;;;12.43;;
26696;SDS011;14312;52.614;13.496;2024-03-08T08:25:03;16.08;;;12.35;;
26696;SDS011;14312;52.614;13.496;2024-03-08T08:27:50;16.02;;;12.27;;
26696;SDS011;14312;52.614;13.496;2024-03-08T08:30:36;16.55;;;12.35;;
26696;SDS011;14312;52.614;13.496;2024-03-08T08:33:23;14.65;;;11.48;;
26696;SDS011;14312;52.614;13.496;2024-03-08T08:36:11;16.20;;;11.70;;
26696;SDS011;14312;52.614;13.496;2024-03-08T08:38:55;11.55;;;10.13;;
26696;SDS011;14312;52.614;13.496;2024-03-08T08:41:43;15.13;;;11.57;;
26696;SDS011;14312;52.614;13.496;2024-03-08T08:44:29;15.45;;;12.13;;
26696;SDS011;14312;52.614;13.496;2024-03-08T08:47:16;13.73;;;11.35;;
26696;SDS011;14312;52.614;13.496;2024-03-08T08:50:04;14.27;;;11.40;;
26696;SDS011;14312;52.614;13.496;2024-03-08T08:52:51;16.63;;;11.88;;
26696;SDS011;14312;52.614;13.496;2024-03-08T08:55:37;17.00;;;13.63;;
26696;SDS011;14312;52.614;13.496;2024-03-08T08:58:25;17.13;;;13.07;;
26696;SDS011;14312;52.614;13.496;2024-03-08T09:01:12;13.63;;;11.40;;
26696;SDS011;14312;52.614;13.496;2024-03-08T09:03:58;15.07;;;12.05;;
26696;SDS011;14312;52.614;13.496;2024-03-08T09:06:44;12.75;;;11.15;;
26696;SDS011;14312;52.614;13.496;2024-03-08T09:09:30;11.70;;;9.52;;
26696;SDS011;14312;52.614;13.496;2024-03-08T09:12:16;12.25;;;10.73;;
26696;SDS011;14312;52.614;13.496;2024-03-08T09:15:03;13.23;;;11.48;;
26696;SDS011;14312;52.614;13.496;2024-03-08T09:17:48;14.40;;;11.80;;
26696;SDS011;14312;52.614;13.496;2024-03-08T09:20:34;13.88;;;11.55;;
26696;SDS011;14312;52.614;13.496;2024-03-08T09:23:21;12.60;;;11.30;;
26696;SDS011;14312;52.614;13.496;2024-03-08T09:26:07;14.35;;;12.18;;
26696;SDS011;14312;52.614;13.496;2024-03-08T09:28:54;13.00;;;11.60;;
26696;SDS011;14312;52.614;13.496;2024-03-08T09:31:40;13.68;;;11.85;;
26696;SDS011;14312;52.614;13.496;2024-03-08T09:34:26;13.93;;;12.07;;
26696;SDS011;14312;52.614;13.496;2024-03-08T09:37:12;15.35;;;12.68;;
26696;SDS011;14312;52.614;13.496;2024-03-08T09:39:58;13.15;;;11.30;;
26696;SDS011;14312;52.614;13.496;2024-03-08T09:42:48;14.65;;;11.80;;
26696;SDS011;14312;52.614;13.496;2024-03-08T09:45:35;15.00;;;12.13;;
26696;SDS011;14312;52.614;13.496;2024-03-08T09:48:22;13.35;;;11.43;;
26696;SDS011;14312;52.614;13.496;2024-03-08T09:51:08;15.00;;;12.10;;
26696;SDS011;14312;52.614;13.496;2024-03-08T09:53:59;14.43;;;11.98;;
26696;SDS011;14312;52.614;13.496;2024-03-08T09:56:45;14.48;;;12.68;;
26696;SDS011;14312;52.614;13.496;2024-03-08T09:59:33;13.20;;;11.55;;
26696;SDS011;14312;52.614;13.496;2024-03-08T10:02:21;13.77;;;11.10;;
26696;SDS011;14312;52.614;13.496;2024-03-08T10:05:07;12.32;;;10.80;;
26696;SDS011;14312;52.614;13.496;2024-03-08T10:07:56;13.18;;;10.63;;
26696;SDS011;14312;52.614;13.496;2024-03-08T10:10:42;14.90;;;12.32;;
26696;SDS011;14312;52.614;13.496;2024-03-08T10:13:28;13.63;;;11.57;;
26696;SDS011;14312;52.614;13.496;2024-03-08T10:16:14;12.90;;;11.05;;
26696;SDS011;14312;52.614;13.496;2024-03-08T10:19:02;12.23;;;10.93;;
26696;SDS011;14312;52.614;13.496;2024-03-08T10:21:49;10.95;;;9.80;;
26696;SDS011;14312;52.614;13.496;2024-03-08T10:24:37;13.23;;;11.77;;
26696;SDS011;14312;52.614;13.496;2024-03-08T10:27:24;12.48;;;11.18;;
26696;SDS011;14312;52.614;13.496;2024-03-08T10:30:15;12.68;;;10.82;;
26696;SDS011;14312;52.614;13.496;2024-03-08T10:33:05;12.63;;;9.45;;
26696;SDS011;14312;52.614;13.496;2024-03-08T10:35:52;11.75;;;10.38;;
26696;SDS011;14312;52.614;13.496;2024-03-08T10:38:39;12.35;;;10.80;;
26696;SDS011;14312;52.614;13.496;2024-03-08T10:41:27;12.10;;;10.18;;
26696;SDS011;14312;52.614;13.496;2024-03-08T10:44:26;13.60;;;10.93;;
26696;SDS011;14312;52.614;13.496;2024-03-08T10:47:18;15.07;;;11.57;;
26696;SDS011;14312;52.614;13.496;2024-03-08T10:50:19;12.60;;;10.05;;
26696;SDS011;14312;52.614;13.496;2024-03-08T10:53:07;13.27;;;10.57;;
26696;SDS011;14312;52.614;13.496;2024-03-08T10:55:57;13.27;;;10.45;;
26696;SDS011;14312;52.614;13.496;2024-03-08T10:58:43;13.98;;;10.73;;
26696;SDS011;14312;52.614;13.496;2024-03-08T11:01:30;12.88;;;10.63;;
26696;SDS011;14312;52.614;13.496;2024-03-08T11:04:16;12.63;;;10.75;;
26696;SDS011;14312;52.614;13.496;2024-03-08T11:07:05;11.60;;;9.45;;
26696;SDS011;14312;52.614;13.496;2024-03-08T11:09:52;12.35;;;10.38;;
26696;SDS011;14312;52.614;13.496;2024-03-08T11:12:38;12.95;;;10.82;;
26696;SDS011;14312;52.614;13.496;2024-03-08T11:15:24;13.00;;;10.60;;
26696;SDS011;14312;52.614;13.496;2024-03-08T11:18:10;13.70;;;10.52;;
26696;SDS011;14312;52.614;13.496;2024-03-08T11:20:58;11.38;;;9.98;;
26696;SDS011;14312;52.614;13.496;2024-03-08T11:23:43;11.23;;;9.90;;
26696;SDS011;14312;52.614;13.496;2024-03-08T11:26:45;11.15;;;9.65;;
26696;SDS011;14312;52.614;13.496;2024-03-08T11:29:33;13.00;;;10.85;;
26696;SDS011;14312;52.614;13.496;2024-03-08T11:32:23;12.90;;;10.45;;
26696;SDS011;14312;52.614;13.496;2024-03-08T11:35:19;12.77;;;10.27;;
26696;SDS011;14312;52.614;13.496;2024-03-08T11:38:07;11.20;;;9.32;;
26696;SDS011;14312;52.614;13.496;2024-03-08T11:40:56;11.30;;;9.73;;
26696;SDS011;14312;52.614;13.496;2024-03-08T11:43:42;11.30;;;9.98;;
26696;SDS011;14312;52.614;13.496;2024-03-08T11:46:29;11.30;;;10.18;;
26696;SDS011;14312;52.614;13.496;2024-03-08T11:49:16;12.00;;;9.38;;
26696;SDS011;14312;52.614;13.496;2024-03-08T11:52:02;9.88;;;8.68;;
26696;SDS011;14312;52.614;13.496;2024-03-08T11:54:52;11.27;;;9.90;;
26696;SDS011;14312;52.614;13.496;2024-03-08T11:57:45;10.82;;;9.25;;
26696;SDS011;14312;52.614;13.496;2024-03-08T12:00:31;11.07;;;9.75;;
26696;SDS011;14312;52.614;13.496;2024-03-08T12:03:23;10.45;;;8.77;;
26696;SDS011;14312;52.614;13.496;2024-03-08T12:06:12;11.10;;;9.48;;
26696;SDS011;14312;52.614;13.496;2024-03-08T12:09:01;10.63;;;9.52;;
26696;SDS011;14312;52.614;13.496;2024-03-08T12:11:48;10.77;;;9.68;;
26696;SDS011;14312;52.614;13.496;2024-03-08T12:14:36;13.43;;;10.95;;
26696;SDS011;14312;52.614;13.496;2024-03-08T12:17:22;11.15;;;9.95;;
26696;SDS011;14312;52.614;13.496;2024-03-08T12:20:22;12.52;;;9.25;;
26696;SDS011;14312;52.614;13.496;2024-03-08T12:23:15;10.02;;;8.48;;
26696;SDS011;14312;52.614;13.496;2024-03-08T12:26:15;11.77;;;8.80;;
26696;SDS011;14312;52.614;13.496;2024-03-08T12:29:15;11.20;;;9.45;;
26696;SDS011;14312;52.614;13.496;2024-03-08T12:32:08;9.77;;;8.75;;
26696;SDS011;14312;52.614;13.496;2024-03-08T12:34:57;12.68;;;10.20;;
26696;SDS011;14312;52.614;13.496;2024-03-08T12:37:43;9.57;;;8.57;;
26696;SDS011;14312;52.614;13.496;2024-03-08T12:40:30;9.88;;;8.85;;
26696;SDS011;14312;52.614;13.496;2024-03-08T12:43:17;10.10;;;8.80;;
26696;SDS011;14312;52.614;13.496;2024-03-08T12:46:04;11.95;;;9.90;;
26696;SDS011;14312;52.614;13.496;2024-03-08T12:48:51;10.25;;;9.20;;
26696;SDS011;14312;52.614;13.496;2024-03-08T12:51:39;10.25;;;9.15;;
26696;SDS011;14312;52.614;13.496;2024-03-08T12:54:25;10.80;;;9.70;;
26696;SDS011;14312;52.614;13.496;2024-03-08T12:57:11;9.07;;;8.18;;
26696;SDS011;14312;52.614;13.496;2024-03-08T12:59:57;9.93;;;8.93;;
26696;SDS011;14312;52.614;13.496;2024-03-08T13:02:43;9.52;;;8.63;;
26696;SDS011;14312;52.614;13.496;2024-03-08T13:05:29;9.55;;;8.55;;
26696;SDS011;14312;52.614;13.496;2024-03-08T13:08:15;9.95;;;8.95;;
26696;SDS011;14312;52.614;13.496;2024-03-08T13:11:03;10.00;;;9.00;;
26696;SDS011;14312;52.614;13.496;2024-03-08T13:13:50;9.55;;;8.60;;
26696;SDS011;14312;52.614;13.496;2024-03-08T13:16:36;9.57;;;8.60;;
26696;SDS011;14312;52.614;13.496;2024-03-08T13:19:22;10.07;;;8.98;;
26696;SDS011;14312;52.614;13.496;2024-03-08T13:22:08;10.48;;;9.13;;
26696;SDS011;14312;52.614;13.496;2024-03-08T13:25:02;10.50;;;9.50;;
26696;SDS011;14312;52.614;13.496;2024-03-08T13:27:50;10.63;;;9.52;;
26696;SDS011;14312;52.614;13.496;2024-03-08T13:30:36;10.70;;;9.60;;
26696;SDS011;14312;52.614;13.496;2024-03-08T13:33:22;9.85;;;8.85;;
26696;SDS011;14312;52.614;13.496;2024-03-08T13:36:09;9.93;;;8.77;;
26696;SDS011;14312;52.614;13.496;2024-03-08T13:39:06;9.13;;;8.23;;
26696;SDS011;14312;52.614;13.496;2024-03-08T13:42:00;9.93;;;8.90;;
26696;SDS011;14312;52.614;13.496;2024-03-08T13:44:46;11.70;;;10.02;;
26696;SDS011;14312;52.614;13.496;2024-03-08T13:47:32;10.10;;;8.75;;
26696;SDS011;14312;52.614;13.496;2024-03-08T13:50:19;10.55;;;9.45;;
26696;SDS011;14312;52.614;13.496;2024-03-08T13:53:09;10.52;;;9.50;;
26696;SDS011;14312;52.614;13.496;2024-03-08T13:55:55;10.38;;;9.43;;
26696;SDS011;14312;52.614;13.496;2024-03-08T13:58:42;10.07;;;9.07;;
26696;SDS011;14312;52.614;13.496;2024-03-08T14:01:29;10.50;;;9.40;;
26696;SDS011;14312;52.614;13.496;2024-03-08T14:04:16;10.50;;;9.40;;
26696;SDS011;14312;52.614;13.496;2024-03-08T14:07:04;10.70;;;9.57;;
26696;SDS011;14312;52.614;13.496;2024-03-08T14:09:53;10.55;;;9.45;;
26696;SDS011;14312;52.614;13.496;2024-03-08T14:12:39;9.60;;;8.60;;
26696;SDS011;14312;52.614;13.496;2024-03-08T14:15:25;10.82;;;9.73;;
26696;SDS011;14312;52.614;13.496;2024-03-08T14:18:12;10.35;;;9.35;;
26696;SDS011;14312;52.614;13.496;2024-03-08T14:20:58;10.32;;;9.32;;
26696;SDS011;14312;52.614;13.496;2024-03-08T14:23:44;9.75;;;8.43;;
26696;SDS011;14312;52.614;13.496;2024-03-08T14:26:30;8.77;;;7.88;;
26696;SDS011;14312;52.614;13.496;2024-03-08T14:29:17;10.82;;;9.13;;
26696;SDS011;14312;52.614;13.496;2024-03-08T14:32:04;8.32;;;7.53;;
26696;SDS011;14312;52.614;13.496;2024-03-08T14:34:51;8.35;;;7.53;;
26696;SDS011;14312;52.614;13.496;2024-03-08T14:37:38;11.30;;;9.05;;
26696;SDS011;14312;52.614;13.496;2024-03-08T14:40:24;8.93;;;8.02;;
26696;SDS011;14312;52.614;13.496;2024-03-08T14:43:11;10.88;;;9.73;;
26696;SDS011;14312;52.614;13.496;2024-03-08T14:45:57;10.50;;;9.40;;
26696;SDS011;14312;52.614;13.496;2024-03-08T14:48:43;9.23;;;8.32;;
26696;SDS011;14312;52.614;13.496;2024-03-08T14:51:30;8.98;;;7.97;;
26696;SDS011;14312;52.614;13.496;2024-03-08T14:54:17;8.93;;;8.02;;
26696;SDS011;14312;52.614;13.496;2024-03-08T14:57:08;8.88;;;8.05;;
26696;SDS011;14312;52.614;13.496;2024-03-08T14:59:54;8.95;;;7.82;;
26696;SDS011;14312;52.614;13.496;2024-03-08T15:02:40;9.82;;;8.82;;
26696;SDS011;14312;52.614;13.496;2024-03-08T15:05:26;8.23;;;7.45;;
26696;SDS011;14312;52.614;13.496;2024-03-08T15:08:12;9.20;;;8.07;;
26696;SDS011;14312;52.614;13.496;2024-03-08T15:11:05;9.65;;;8.65;;
26696;SDS011;14312;52.614;13.496;2024-03-08T15:13:52;8.73;;;7.93;;
26696;SDS011;14312;52.614;13.496;2024-03-08T15:16:39;8.65;;;7.75;;
26696;SDS011;14312;52.614;13.496;2024-03-08T15:19:28;8.68;;;7.88;;
26696;SDS011;14312;52.614;13.496;2024-03-08T15:22:14;9.93;;;7.90;;
26696;SDS011;14312;52.614;13.496;2024-03-08T15:25:03;8.70;;;7.80;;
26696;SDS011;14312;52.614;13.496;2024-03-08T15:27:49;8.38;;;7.57;;
26696;SDS011;14312;52.614;13.496;2024-03-08T15:30:35;8.32;;;7.53;;
26696;SDS011;14312;52.614;13.496;2024-03-08T15:33:21;9.35;;;7.97;;
26696;SDS011;14312;52.614;13.496;2024-03-08T15:36:12;9.30;;;8.32;;
26696;SDS011;14312;52.614;13.496;2024-03-08T15:39:00;9.30;;;8.30;;
26696;SDS011;14312;52.614;13.496;2024-03-08T15:41:47;9.68;;;7.72;;
26696;SDS011;14312;52.614;13.496;2024-03-08T15:44:33;9.45;;;8.52;;
26696;SDS011;14312;52.614;13.496;2024-03-08T15:47:18;7.75;;;6.95;;
26696;SDS011;14312;52.614;13.496;2024-03-08T15:50:05;9.13;;;7.45;;
26696;SDS011;14312;52.614;13.496;2024-03-08T15:52:57;8.75;;;7.70;;
26696;SDS011;14312;52.614;13.496;2024-03-08T15:55:45;8.02;;;6.70;;
26696;SDS011;14312;52.614;13.496;2024-03-08T15:58:32;7.45;;;6.75;;
26696;SDS011;14312;52.614;13.496;2024-03-08T16:01:21;7.90;;;7.10;;
26696;SDS011;14312;52.614;13.496;2024-03-08T16:04:07;7.95;;;7.20;;
26696;SDS011;14312;52.614;13.496;2024-03-08T16:06:54;7.85;;;6.75;;
26696;SDS011;14312;52.614;13.496;2024-03-08T16:09:40;7.85;;;6.50;;
26696;SDS011;14312;52.614;13.496;2024-03-08T16:12:26;6.90;;;6.13;;
26696;SDS011;14312;52.614;13.496;2024-03-08T16:15:14;7.20;;;6.47;;
26696;SDS011;14312;52.614;13.496;2024-03-08T16:18:00;9.10;;;6.93;;
26696;SDS011;14312;52.614;13.496;2024-03-08T16:20:51;7.15;;;6.43;;